createdAt,value
2022-10-31T00:01:00.678Z,26.30
2022-10-31T00:03:39.532Z,26.30
2022-10-31T00:06:06.772Z,27.90
2022-10-31T00:08:33.829Z,38.20
2022-10-31T00:11:01.018Z,32.60
2022-10-31T00:13:28.130Z,29.40
2022-10-31T00:15:55.300Z,30.20
2022-10-31T00:18:22.425Z,31.10
2022-10-31T00:20:49.427Z,23.70
2022-10-31T00:23:16.601Z,23.00
2022-10-31T00:25:43.704Z,24.00
2022-10-31T00:28:12.913Z,24.80
2022-10-31T00:30:40.130Z,25.70
2022-10-31T00:33:07.157Z,24.50
2022-10-31T00:35:34.396Z,28.80
2022-10-31T00:38:01.658Z,34.30
2022-10-31T00:40:28.761Z,35.00
2022-10-31T00:42:55.959Z,31.70
2022-10-31T00:45:24.147Z,30.60
2022-10-31T00:47:51.534Z,28.90
2022-10-31T00:50:18.782Z,23.90
2022-10-31T00:52:45.774Z,23.00
2022-10-31T00:55:12.979Z,21.20
2022-10-31T00:57:40.396Z,21.60
2022-10-31T01:00:08.306Z,19.80
2022-10-31T01:02:35.906Z,19.40
2022-10-31T01:05:03.312Z,18.80
2022-10-31T01:07:30.346Z,19.10
2022-10-31T01:09:57.457Z,19.50
2022-10-31T01:12:26.565Z,17.80
2022-10-31T01:14:53.672Z,18.30
2022-10-31T01:17:20.797Z,16.90
2022-10-31T01:19:47.820Z,18.80
2022-10-31T01:22:14.917Z,31.10
2022-10-31T01:24:41.995Z,54.20
2022-10-31T01:27:09.076Z,52.80
2022-10-31T01:29:36.236Z,34.40
2022-10-31T01:32:03.435Z,33.40
2022-10-31T01:34:30.592Z,26.40
2022-10-31T01:36:57.800Z,39.80
2022-10-31T01:39:24.996Z,26.30
2022-10-31T01:41:54.279Z,24.20
2022-10-31T01:44:21.398Z,23.60
2022-10-31T01:46:59.557Z,23.10
2022-10-31T01:49:32.575Z,20.30
2022-10-31T01:52:10.874Z,18.90
2022-10-31T01:54:43.972Z,25.00
2022-10-31T01:57:14.230Z,26.00
2022-10-31T01:59:45.139Z,25.30
2022-10-31T02:02:14.094Z,22.60
2022-10-31T02:04:42.199Z,21.40
2022-10-31T02:07:17.334Z,22.50
2022-10-31T02:09:47.559Z,20.50
2022-10-31T02:12:15.940Z,21.30
2022-10-31T02:14:43.294Z,18.10
2022-10-31T02:17:10.483Z,18.50
2022-10-31T02:19:58.279Z,17.10
2022-10-31T02:22:28.484Z,18.40
2022-10-31T02:25:42.867Z,18.60
2022-10-31T02:28:28.209Z,20.10
2022-10-31T02:31:16.995Z,22.90
2022-10-31T02:33:50.698Z,21.30
2022-10-31T02:36:30.602Z,22.80
2022-10-31T02:39:00.548Z,20.60
2022-10-31T02:41:46.154Z,22.70
2022-10-31T02:44:45.657Z,23.10
2022-10-31T02:47:29.380Z,23.60
2022-10-31T02:50:09.939Z,20.10
2022-10-31T02:52:39.390Z,20.00
2022-10-31T02:55:27.917Z,18.40
2022-10-31T02:58:07.613Z,16.00
2022-10-31T03:00:48.411Z,14.20
2022-10-31T03:03:40.435Z,14.90
2022-10-31T03:06:15.638Z,12.60
2022-10-31T03:08:55.642Z,13.50
2022-10-31T03:11:29.432Z,13.10
2022-10-31T03:14:10.134Z,13.20
2022-10-31T03:16:56.517Z,14.30
2022-10-31T03:19:27.575Z,18.70
2022-10-31T03:22:05.848Z,22.50
2022-10-31T03:24:39.613Z,19.10
2022-10-31T03:27:10.981Z,21.40
2022-10-31T03:29:41.343Z,19.30
2022-10-31T03:32:24.916Z,18.50
2022-10-31T03:34:58.184Z,19.70
2022-10-31T03:37:28.110Z,22.50
2022-10-31T03:39:58.311Z,18.10
2022-10-31T03:42:28.357Z,17.80
2022-10-31T03:45:03.237Z,19.80
2022-10-31T03:47:30.713Z,18.20
2022-10-31T03:49:58.646Z,16.50
2022-10-31T03:52:38.653Z,15.90
2022-10-31T03:55:11.882Z,17.50
2022-10-31T03:57:48.298Z,15.70
2022-10-31T04:00:17.505Z,15.10
2022-10-31T04:03:10.340Z,16.30
2022-10-31T04:05:39.273Z,16.20
2022-10-31T04:08:11.022Z,17.00
2022-10-31T04:10:39.899Z,17.10
2022-10-31T04:13:11.355Z,18.50
2022-10-31T04:15:50.052Z,20.10
2022-10-31T04:18:17.627Z,19.80
2022-10-31T04:20:45.032Z,15.20
2022-10-31T04:23:23.286Z,17.50
2022-10-31T04:25:50.573Z,21.30
2022-10-31T04:30:46.316Z,43.20
2022-10-31T04:33:13.460Z,31.30
2022-10-31T04:35:41.284Z,22.90
2022-10-31T04:38:08.467Z,21.50
2022-10-31T04:40:35.812Z,69.10
2022-10-31T04:43:21.587Z,38.20
2022-10-31T04:45:49.112Z,15.40
2022-10-31T04:48:16.570Z,13.00
2022-10-31T04:50:45.253Z,14.10
2022-10-31T04:53:13.712Z,18.10
2022-10-31T04:56:01.649Z,17.70
2022-10-31T04:58:37.185Z,16.30
2022-10-31T05:01:06.607Z,13.80
2022-10-31T05:03:33.940Z,18.00
2022-10-31T05:06:01.084Z,12.20
2022-10-31T05:08:28.436Z,11.90
2022-10-31T05:10:57.355Z,12.40
2022-10-31T05:13:27.865Z,21.60
2022-10-31T05:16:13.315Z,20.00
2022-10-31T05:19:02.952Z,15.80
2022-10-31T05:22:02.551Z,18.60
2022-10-31T05:24:29.850Z,13.30
2022-10-31T05:26:56.993Z,15.40
2022-10-31T05:29:24.212Z,20.00
2022-10-31T05:31:52.171Z,12.50
2022-10-31T05:34:42.372Z,29.80
2022-10-31T05:37:32.146Z,13.70
2022-10-31T05:40:05.298Z,16.00
2022-10-31T05:42:35.480Z,15.00
2022-10-31T05:45:02.677Z,15.70
2022-10-31T05:47:57.175Z,13.50
2022-10-31T05:50:44.936Z,16.30
2022-10-31T05:53:12.498Z,23.00
2022-10-31T05:55:41.871Z,27.90
2022-10-31T05:58:14.368Z,14.30
2022-10-31T06:00:48.110Z,20.10
2022-10-31T06:03:15.846Z,17.60
2022-10-31T06:05:55.787Z,27.20
2022-10-31T06:08:25.885Z,28.50
2022-10-31T06:10:54.869Z,25.80
2022-10-31T06:13:31.007Z,25.00
2022-10-31T06:16:09.352Z,31.40
2022-10-31T06:18:37.443Z,17.50
2022-10-31T06:21:04.662Z,19.00
2022-10-31T06:23:31.756Z,28.30
2022-10-31T06:26:18.899Z,23.20
2022-10-31T06:28:46.079Z,20.50
2022-10-31T06:31:25.066Z,25.10
2022-10-31T06:33:52.668Z,24.60
2022-10-31T06:36:19.909Z,25.60
2022-10-31T06:38:47.868Z,23.50
2022-10-31T06:41:16.713Z,18.10
2022-10-31T06:43:48.294Z,15.70
2022-10-31T06:46:50.259Z,17.10
2022-10-31T06:49:35.885Z,18.20
2022-10-31T06:52:06.411Z,15.30
2022-10-31T06:54:33.552Z,15.00
2022-10-31T06:57:01.077Z,16.40
2022-10-31T06:59:28.776Z,13.60
2022-10-31T07:02:16.268Z,12.60
2022-10-31T07:04:43.691Z,18.50
2022-10-31T07:07:13.756Z,18.80
2022-10-31T07:09:41.123Z,19.00
2022-10-31T07:12:09.732Z,13.90
2022-10-31T07:14:39.192Z,20.90
2022-10-31T07:17:06.349Z,24.50
2022-10-31T07:19:37.015Z,25.50
2022-10-31T07:22:04.076Z,21.60
2022-10-31T07:24:31.606Z,15.10
2022-10-31T07:29:26.886Z,20.20
2022-10-31T07:31:53.972Z,19.40
2022-10-31T07:34:25.325Z,19.40
2022-10-31T07:37:30.840Z,19.30
2022-10-31T07:39:59.199Z,15.70
2022-10-31T07:42:26.387Z,19.00
2022-10-31T07:44:56.751Z,17.20
2022-10-31T07:47:53.313Z,18.00
2022-10-31T07:50:38.945Z,17.00
2022-10-31T07:53:32.079Z,15.30
2022-10-31T07:56:11.809Z,14.00
2022-10-31T07:58:38.845Z,12.60
2022-10-31T08:01:06.221Z,16.30
2022-10-31T08:03:39.212Z,15.30
2022-10-31T08:06:26.384Z,15.30
2022-10-31T08:08:55.924Z,12.70
2022-10-31T08:11:23.738Z,12.20
2022-10-31T08:13:50.878Z,14.00
2022-10-31T08:16:18.637Z,12.60
2022-10-31T08:18:57.899Z,12.20
2022-10-31T08:21:25.092Z,14.30
2022-10-31T08:23:52.167Z,12.50
2022-10-31T08:26:21.164Z,13.90
2022-10-31T08:28:50.921Z,15.00
2022-10-31T08:31:20.099Z,14.90
2022-10-31T08:33:47.263Z,13.60
2022-10-31T08:36:20.991Z,13.00
2022-10-31T08:39:15.082Z,11.40
2022-10-31T08:41:42.319Z,13.70
2022-10-31T08:44:12.174Z,16.20
2022-10-31T08:46:39.554Z,18.80
2022-10-31T08:49:06.779Z,13.70
2022-10-31T08:51:34.797Z,13.50
2022-10-31T08:54:01.944Z,14.20
2022-10-31T08:57:04.385Z,13.30
2022-10-31T08:59:43.429Z,12.40
2022-10-31T09:02:24.924Z,12.20
2022-10-31T09:04:54.630Z,11.80
2022-10-31T09:07:22.430Z,12.80
2022-10-31T09:09:49.571Z,12.20
2022-10-31T09:12:17.541Z,13.20
2022-10-31T09:15:07.900Z,14.90
2022-10-31T09:17:49.390Z,16.20
2022-10-31T09:20:30.591Z,17.30
2022-10-31T09:23:07.284Z,16.10
2022-10-31T09:25:36.661Z,13.60
2022-10-31T09:28:29.616Z,15.10
2022-10-31T09:30:59.589Z,15.30
2022-10-31T09:33:45.728Z,14.80
2022-10-31T09:39:13.136Z,31.00
2022-10-31T09:42:02.372Z,24.60
2022-10-31T09:44:48.021Z,21.00
2022-10-31T09:47:53.248Z,16.90
2022-10-31T09:50:48.598Z,16.50
2022-10-31T09:53:51.396Z,17.90
2022-10-31T09:56:24.055Z,19.40
2022-10-31T09:58:59.311Z,27.60
2022-10-31T10:01:48.766Z,23.80
2022-10-31T10:04:35.276Z,26.20
2022-10-31T10:07:20.503Z,21.50
2022-10-31T10:10:22.888Z,17.60
2022-10-31T10:13:40.501Z,18.40
2022-10-31T10:16:16.060Z,24.00
2022-10-31T10:21:53.648Z,23.70
2022-10-31T10:24:29.594Z,19.90
2022-10-31T10:27:22.368Z,20.50
2022-10-31T10:30:09.512Z,17.70
2022-10-31T10:32:52.183Z,16.70
2022-10-31T10:35:40.412Z,20.80
2022-10-31T10:38:26.047Z,19.10
2022-10-31T10:40:54.907Z,25.40
2022-10-31T10:43:28.483Z,21.60
2022-10-31T10:46:39.213Z,21.70
2022-10-31T10:49:17.994Z,20.20
2022-10-31T10:54:48.914Z,22.80
2022-10-31T10:57:22.007Z,22.00
2022-10-31T10:59:49.998Z,20.10
2022-10-31T11:02:25.471Z,16.90
2022-10-31T11:04:55.923Z,20.50
2022-10-31T11:07:23.239Z,19.10
2022-10-31T11:09:50.555Z,20.60
2022-10-31T11:12:22.681Z,23.20
2022-10-31T11:14:49.753Z,25.80
2022-10-31T11:17:31.809Z,24.90
2022-10-31T11:20:22.863Z,25.00
2022-10-31T11:22:50.444Z,25.40
2022-10-31T11:25:20.281Z,28.80
2022-10-31T11:27:47.870Z,30.30
2022-10-31T11:30:16.404Z,34.60
2022-10-31T11:32:55.057Z,38.20
2022-10-31T11:35:25.368Z,28.50
2022-10-31T11:37:55.031Z,28.80
2022-10-31T11:40:27.211Z,30.10
2022-10-31T11:42:58.540Z,30.10
2022-10-31T11:45:30.960Z,34.00
2022-10-31T11:48:00.223Z,32.40
2022-10-31T11:50:37.747Z,31.50
2022-10-31T11:53:12.464Z,30.30
2022-10-31T11:55:41.002Z,29.90
2022-10-31T11:58:27.090Z,29.20
2022-10-31T12:00:56.743Z,29.60
2022-10-31T12:03:23.837Z,31.80
2022-10-31T12:06:01.003Z,32.60
2022-10-31T12:08:32.436Z,30.90
2022-10-31T12:11:03.201Z,29.90
2022-10-31T12:13:38.630Z,29.90
2022-10-31T12:16:43.212Z,31.90
2022-10-31T12:19:39.114Z,37.40
2022-10-31T12:22:20.861Z,34.70
2022-10-31T12:25:14.153Z,34.80
2022-10-31T12:28:05.060Z,33.60
2022-10-31T12:31:09.835Z,31.00
2022-10-31T12:34:09.318Z,34.10
2022-10-31T12:36:54.528Z,35.00
2022-10-31T12:39:26.088Z,35.30
2022-10-31T12:41:57.544Z,36.40
2022-10-31T12:44:50.657Z,34.70
2022-10-31T12:47:36.146Z,34.80
2022-10-31T12:50:21.748Z,34.50
2022-10-31T12:53:10.918Z,31.70
2022-10-31T12:55:56.948Z,33.00
2022-10-31T13:01:24.003Z,37.90
2022-10-31T13:04:04.425Z,31.20
2022-10-31T13:06:42.002Z,34.60
2022-10-31T13:09:16.727Z,30.70
2022-10-31T13:11:49.567Z,34.40
2022-10-31T13:14:25.689Z,36.00
2022-10-31T13:16:53.536Z,35.10
2022-10-31T13:19:27.429Z,35.20
2022-10-31T13:22:00.503Z,32.10
2022-10-31T13:24:37.900Z,29.90
2022-10-31T13:27:21.635Z,29.90
2022-10-31T13:30:00.559Z,30.90
2022-10-31T13:32:38.274Z,34.30
2022-10-31T13:35:08.875Z,34.50
2022-10-31T13:37:41.804Z,35.90
2022-10-31T13:40:34.390Z,33.30
2022-10-31T13:43:25.379Z,30.90
2022-10-31T13:45:54.809Z,30.20
2022-10-31T13:48:42.171Z,29.50
2022-10-31T13:51:12.010Z,30.70
2022-10-31T13:53:40.607Z,35.60
2022-10-31T13:56:10.753Z,57.50
2022-10-31T13:58:38.078Z,39.90
2022-10-31T14:01:11.438Z,37.60
2022-10-31T14:04:07.764Z,33.30
2022-10-31T14:06:55.749Z,34.60
2022-10-31T14:09:49.328Z,33.60
2022-10-31T14:12:27.259Z,36.50
2022-10-31T14:15:00.854Z,28.90
2022-10-31T14:17:35.245Z,36.50
2022-10-31T14:20:11.490Z,34.80
2022-10-31T14:22:42.802Z,30.50
2022-10-31T14:25:36.729Z,27.90
2022-10-31T14:28:20.409Z,28.00
2022-10-31T14:30:58.866Z,27.40
2022-10-31T14:33:29.329Z,25.30
2022-10-31T14:36:20.008Z,26.90
2022-10-31T14:38:57.753Z,28.30
2022-10-31T14:41:42.302Z,32.70
2022-10-31T14:44:25.551Z,35.50
2022-10-31T14:47:11.449Z,39.10
2022-10-31T14:52:15.474Z,38.30
2022-10-31T14:54:48.175Z,50.40
2022-10-31T14:57:20.112Z,40.60
2022-10-31T14:59:51.800Z,37.10
2022-10-31T15:02:37.804Z,34.70
2022-10-31T15:05:10.120Z,30.80
2022-10-31T15:07:41.018Z,29.50
2022-10-31T15:10:22.847Z,31.00
2022-10-31T15:12:50.229Z,32.40
2022-10-31T15:15:26.802Z,32.50
2022-10-31T15:18:00.915Z,40.40
2022-10-31T15:20:31.112Z,34.60
2022-10-31T15:23:00.108Z,35.70
2022-10-31T15:25:33.513Z,38.00
2022-10-31T15:28:00.861Z,45.10
2022-10-31T15:30:31.161Z,55.90
2022-10-31T15:32:59.234Z,48.70
2022-10-31T15:35:28.764Z,42.30
2022-10-31T15:37:57.937Z,29.50
2022-10-31T15:40:27.189Z,48.00
2022-10-31T15:43:05.698Z,42.40
2022-10-31T15:45:32.858Z,38.70
2022-10-31T15:48:18.378Z,48.70
2022-10-31T15:50:58.516Z,43.90
2022-10-31T15:53:47.740Z,38.50
2022-10-31T15:56:22.585Z,38.90
2022-10-31T15:58:53.316Z,36.00
2022-10-31T16:01:24.841Z,34.50
2022-10-31T16:04:24.865Z,34.10
2022-10-31T16:07:20.191Z,43.30
2022-10-31T16:09:53.733Z,44.80
2022-10-31T16:12:22.757Z,88.80
2022-10-31T16:14:52.702Z,98.90
2022-10-31T16:17:22.755Z,77.90
2022-10-31T16:20:00.096Z,66.70
2022-10-31T16:22:33.912Z,94.80
2022-10-31T16:25:18.024Z,52.20
2022-10-31T16:27:54.587Z,35.70
2022-10-31T16:30:46.807Z,46.70
2022-10-31T16:33:22.944Z,39.20
2022-10-31T16:35:53.252Z,49.00
2022-10-31T16:38:23.509Z,214.90
2022-10-31T16:40:52.465Z,245.30
2022-10-31T16:43:23.143Z,184.10
2022-10-31T16:45:53.776Z,52.10
2022-10-31T16:48:23.581Z,38.70
2022-10-31T16:50:53.973Z,39.40
2022-10-31T16:53:21.124Z,39.70
2022-10-31T16:56:03.680Z,37.00
2022-10-31T16:58:34.050Z,36.60
2022-10-31T17:01:02.642Z,40.90
2022-10-31T17:03:29.822Z,38.40
2022-10-31T17:05:57.226Z,38.10
2022-10-31T17:08:25.015Z,55.10
2022-10-31T17:10:54.797Z,34.70
2022-10-31T17:13:25.552Z,44.00
2022-10-31T17:15:55.409Z,46.50
2022-10-31T17:18:27.139Z,37.10
2022-10-31T17:21:00.292Z,37.60
2022-10-31T17:23:28.623Z,39.60
2022-10-31T17:25:56.958Z,36.60
2022-10-31T17:28:26.594Z,40.10
2022-10-31T17:30:55.902Z,47.10
2022-10-31T17:33:22.948Z,39.80
2022-10-31T17:35:50.170Z,43.10
2022-10-31T17:38:17.412Z,46.80
2022-10-31T17:40:44.619Z,45.40
2022-10-31T17:43:12.571Z,46.80
2022-10-31T17:45:41.487Z,49.70
2022-10-31T17:48:12.411Z,42.80
2022-10-31T17:50:39.621Z,44.40
2022-10-31T17:53:06.608Z,45.80
2022-10-31T17:55:36.984Z,38.60
2022-10-31T17:58:05.515Z,36.30
2022-10-31T18:00:32.607Z,46.30
2022-10-31T18:03:00.025Z,40.50
2022-10-31T18:05:27.503Z,49.80
2022-10-31T18:07:56.495Z,41.60
2022-10-31T18:10:25.745Z,38.50
2022-10-31T18:12:53.012Z,38.40
2022-10-31T18:15:20.433Z,45.90
2022-10-31T18:17:47.556Z,54.90
2022-10-31T18:20:14.577Z,42.90
2022-10-31T18:22:41.789Z,31.40
2022-10-31T18:25:09.080Z,91.70
2022-10-31T18:27:36.119Z,55.20
2022-10-31T18:30:03.493Z,58.00
2022-10-31T18:32:30.539Z,39.10
2022-10-31T18:34:57.689Z,61.30
2022-10-31T18:37:24.735Z,49.10
2022-10-31T18:39:51.852Z,48.60
2022-10-31T18:42:19.021Z,68.20
2022-10-31T18:44:46.070Z,54.00
2022-10-31T18:47:13.226Z,32.30
2022-10-31T18:49:40.367Z,45.00
2022-10-31T18:52:07.400Z,76.00
2022-10-31T18:54:34.495Z,57.80
2022-10-31T18:57:01.645Z,42.10
2022-10-31T18:59:28.648Z,44.90
2022-10-31T19:01:56.919Z,35.70
2022-10-31T19:04:24.312Z,25.60
2022-10-31T19:06:51.392Z,72.30
2022-10-31T19:09:18.630Z,32.10
2022-10-31T19:11:45.915Z,33.40
2022-10-31T19:14:14.921Z,29.30
2022-10-31T19:16:42.188Z,46.60
2022-10-31T19:19:09.799Z,29.70
2022-10-31T19:21:36.716Z,119.30
2022-10-31T19:24:04.048Z,151.20
2022-10-31T19:26:33.911Z,95.40
2022-10-31T19:29:01.140Z,53.60
2022-10-31T19:31:28.198Z,39.00
2022-10-31T19:33:55.369Z,41.70
2022-10-31T19:36:22.866Z,28.40
2022-10-31T19:38:52.449Z,32.90
2022-10-31T19:41:20.886Z,25.40
2022-10-31T19:43:48.503Z,29.10
2022-10-31T19:46:22.828Z,24.70
2022-10-31T19:49:01.348Z,32.60
2022-10-31T19:51:28.613Z,27.00
2022-10-31T19:53:55.767Z,29.90
2022-10-31T19:56:25.096Z,25.30
2022-10-31T19:58:52.567Z,21.50
2022-10-31T20:01:22.783Z,22.30
2022-10-31T20:03:50.688Z,33.80
2022-10-31T20:06:26.859Z,22.80
2022-10-31T20:08:56.311Z,22.40
2022-10-31T20:11:25.301Z,32.20
2022-10-31T20:13:55.028Z,25.70
2022-10-31T20:16:22.368Z,26.60
2022-10-31T20:18:49.736Z,25.90
2022-10-31T20:21:20.316Z,27.40
2022-10-31T20:23:47.894Z,22.90
2022-10-31T20:26:18.042Z,18.80
2022-10-31T20:28:46.517Z,20.80
2022-10-31T20:31:21.902Z,24.90
2022-10-31T20:33:49.553Z,25.40
2022-10-31T20:36:21.168Z,25.30
2022-10-31T20:38:48.193Z,33.50
2022-10-31T20:41:16.229Z,38.20
2022-10-31T20:43:43.976Z,24.70
2022-10-31T20:46:19.725Z,22.90
2022-10-31T20:48:47.725Z,19.00
2022-10-31T20:51:18.177Z,17.00
2022-10-31T20:53:45.369Z,15.90
2022-10-31T20:56:15.037Z,16.80
2022-10-31T20:58:43.752Z,19.10
2022-10-31T21:01:14.351Z,18.70
2022-10-31T21:03:42.419Z,18.80
2022-10-31T21:06:10.193Z,16.50
2022-10-31T21:08:38.264Z,16.10
2022-10-31T21:11:11.385Z,18.60
2022-10-31T21:13:43.324Z,15.50
2022-10-31T21:16:12.796Z,14.70
2022-10-31T21:18:42.129Z,16.00
2022-10-31T21:21:10.961Z,14.50
2022-10-31T21:23:38.704Z,16.90
2022-10-31T21:26:13.194Z,17.10
2022-10-31T21:28:40.801Z,14.50
2022-10-31T21:31:09.870Z,15.00
2022-10-31T21:33:37.584Z,14.00
2022-10-31T21:36:06.129Z,14.40
2022-10-31T21:38:34.485Z,14.20
2022-10-31T21:41:03.973Z,14.80
2022-10-31T21:43:32.052Z,16.30
2022-10-31T21:46:04.462Z,15.80
2022-10-31T21:48:31.839Z,14.50
2022-10-31T21:51:06.380Z,14.60
2022-10-31T21:53:52.232Z,13.50
2022-10-31T21:56:19.684Z,14.10
2022-10-31T21:58:46.868Z,14.90
2022-10-31T22:01:14.183Z,13.80
2022-10-31T22:03:42.313Z,12.90
2022-10-31T22:06:11.329Z,15.20
2022-10-31T22:08:39.808Z,15.30
2022-10-31T22:11:11.585Z,20.50
2022-10-31T22:13:38.637Z,16.80
2022-10-31T22:16:08.131Z,14.20
2022-10-31T22:18:35.880Z,15.00
2022-10-31T22:21:02.941Z,14.70
2022-10-31T22:23:30.987Z,13.20
2022-10-31T22:26:06.565Z,14.80
2022-10-31T22:31:08.157Z,16.70
2022-10-31T22:33:36.777Z,17.30
2022-10-31T22:36:07.249Z,15.20
2022-10-31T22:38:40.077Z,14.60
2022-10-31T22:41:09.822Z,14.60
2022-10-31T22:43:37.487Z,13.50
2022-10-31T22:46:06.605Z,13.60
2022-10-31T22:48:40.887Z,16.30
2022-10-31T22:51:12.704Z,18.60
2022-10-31T22:53:40.623Z,16.70
2022-10-31T22:56:08.981Z,16.50
2022-10-31T22:58:36.919Z,14.70
2022-10-31T23:01:15.199Z,14.20
2022-10-31T23:03:43.127Z,16.80
2022-10-31T23:06:14.446Z,15.00
2022-10-31T23:08:42.716Z,14.80
2022-10-31T23:11:22.276Z,15.90
2022-10-31T23:14:10.773Z,15.70
2022-10-31T23:16:58.777Z,17.50
2022-10-31T23:19:30.554Z,16.40
2022-10-31T23:22:04.172Z,15.30
2022-10-31T23:24:39.822Z,13.80
2022-10-31T23:29:54.169Z,13.00
2022-10-31T23:32:28.776Z,12.30
2022-10-31T23:34:59.907Z,13.50
2022-10-31T23:37:29.656Z,13.50
2022-10-31T23:39:57.189Z,13.10
2022-10-31T23:42:25.109Z,12.80
2022-10-31T23:44:52.554Z,14.90
2022-10-31T23:47:20.286Z,17.30
2022-10-31T23:49:48.061Z,13.30
2022-10-31T23:52:16.018Z,12.70
2022-10-31T23:54:43.472Z,13.50
2022-10-31T23:57:12.874Z,16.00
2022-10-31T23:59:39.953Z,14.00
